sensor_id;sensor_type;location;lat;lon;timestamp;P1;P2;P0
65012;PMS5003;51715;39.432;-77.518;2022-07-10T00:00:48;9;9;
65012;PMS5003;51715;39.432;-77.518;2022-07-10T00:03:16;9;8;
65012;PMS5003;51715;39.432;-77.518;2022-07-10T00:05:45;8;8;
65012;PMS5003;51715;39.432;-77.518;2022-07-10T00:08:13;13;9;
65012;PMS5003;51715;39.432;-77.518;2022-07-10T00:10:41;11;11;
65012;PMS5003;51715;39.432;-77.518;2022-07-10T00:13:10;12;10;
65012;PMS5003;51715;39.432;-77.518;2022-07-10T00:15:38;11;11;
65012;PMS5003;51715;39.432;-77.518;2022-07-10T00:18:06;13;13;
65012;PMS5003;51715;39.432;-77.518;2022-07-10T00:20:34;9;9;
65012;PMS5003;51715;39.432;-77.518;2022-07-10T00:23:04;13;10;
65012;PMS5003;51715;39.432;-77.518;2022-07-10T00:25:32;9;9;
65012;PMS5003;51715;39.432;-77.518;2022-07-10T00:28:01;10;9;
65012;PMS5003;51715;39.432;-77.518;2022-07-10T00:30:30;10;10;
65012;PMS5003;51715;39.432;-77.518;2022-07-10T00:32:59;8;7;
65012;PMS5003;51715;39.432;-77.518;2022-07-10T00:35:27;10;9;
65012;PMS5003;51715;39.432;-77.518;2022-07-10T00:37:56;15;12;
65012;PMS5003;51715;39.432;-77.518;2022-07-10T00:40:25;10;10;
65012;PMS5003;51715;39.432;-77.518;2022-07-10T00:42:54;7;7;
65012;PMS5003;51715;39.432;-77.518;2022-07-10T00:45:23;10;10;
65012;PMS5003;51715;39.432;-77.518;2022-07-10T00:47:52;9;9;
65012;PMS5003;51715;39.432;-77.518;2022-07-10T00:50:21;9;9;
65012;PMS5003;51715;39.432;-77.518;2022-07-10T00:52:49;10;10;
65012;PMS5003;51715;39.432;-77.518;2022-07-10T00:55:17;10;10;
65012;PMS5003;51715;39.432;-77.518;2022-07-10T00:57:46;8;8;
65012;PMS5003;51715;39.432;-77.518;2022-07-10T01:00:17;10;10;
65012;PMS5003;51715;39.432;-77.518;2022-07-10T01:02:45;15;12;
65012;PMS5003;51715;39.432;-77.518;2022-07-10T01:05:15;9;9;
65012;PMS5003;51715;39.432;-77.518;2022-07-10T01:07:44;11;11;
65012;PMS5003;51715;39.432;-77.518;2022-07-10T01:10:12;9;8;
65012;PMS5003;51715;39.432;-77.518;2022-07-10T01:12:41;11;10;
65012;PMS5003;51715;39.432;-77.518;2022-07-10T01:15:10;10;10;
65012;PMS5003;51715;39.432;-77.518;2022-07-10T01:17:38;13;13;
65012;PMS5003;51715;39.432;-77.518;2022-07-10T01:20:06;11;10;
65012;PMS5003;51715;39.432;-77.518;2022-07-10T01:22:37;13;12;
65012;PMS5003;51715;39.432;-77.518;2022-07-10T01:25:07;11;11;
65012;PMS5003;51715;39.432;-77.518;2022-07-10T01:27:35;13;13;
65012;PMS5003;51715;39.432;-77.518;2022-07-10T01:30:06;11;11;
65012;PMS5003;51715;39.432;-77.518;2022-07-10T01:32:37;9;9;
65012;PMS5003;51715;39.432;-77.518;2022-07-10T01:35:06;9;9;
65012;PMS5003;51715;39.432;-77.518;2022-07-10T01:37:35;12;12;
65012;PMS5003;51715;39.432;-77.518;2022-07-10T01:40:04;14;14;
65012;PMS5003;51715;39.432;-77.518;2022-07-10T01:42:34;15;12;
65012;PMS5003;51715;39.432;-77.518;2022-07-10T01:45:03;12;11;
65012;PMS5003;51715;39.432;-77.518;2022-07-10T01:47:32;11;11;
65012;PMS5003;51715;39.432;-77.518;2022-07-10T01:50:00;13;11;
65012;PMS5003;51715;39.432;-77.518;2022-07-10T01:52:29;11;11;
65012;PMS5003;51715;39.432;-77.518;2022-07-10T01:54:57;9;9;
65012;PMS5003;51715;39.432;-77.518;2022-07-10T01:57:25;10;10;
65012;PMS5003;51715;39.432;-77.518;2022-07-10T01:59:54;8;8;
65012;PMS5003;51715;39.432;-77.518;2022-07-10T02:02:22;12;12;
65012;PMS5003;51715;39.432;-77.518;2022-07-10T02:04:52;13;11;
65012;PMS5003;51715;39.432;-77.518;2022-07-10T02:07:21;15;13;
65012;PMS5003;51715;39.432;-77.518;2022-07-10T02:09:49;15;15;
65012;PMS5003;51715;39.432;-77.518;2022-07-10T02:12:17;18;16;
65012;PMS5003;51715;39.432;-77.518;2022-07-10T02:14:46;19;16;
65012;PMS5003;51715;39.432;-77.518;2022-07-10T02:17:16;19;17;
65012;PMS5003;51715;39.432;-77.518;2022-07-10T02:19:44;16;16;
65012;PMS5003;51715;39.432;-77.518;2022-07-10T02:22:13;15;15;
65012;PMS5003;51715;39.432;-77.518;2022-07-10T02:24:42;12;12;
65012;PMS5003;51715;39.432;-77.518;2022-07-10T02:27:09;14;13;
65012;PMS5003;51715;39.432;-77.518;2022-07-10T02:29:39;12;12;
65012;PMS5003;51715;39.432;-77.518;2022-07-10T02:32:07;11;11;
65012;PMS5003;51715;39.432;-77.518;2022-07-10T02:34:35;13;13;
65012;PMS5003;51715;39.432;-77.518;2022-07-10T02:37:05;12;11;
65012;PMS5003;51715;39.432;-77.518;2022-07-10T02:39:33;10;10;
65012;PMS5003;51715;39.432;-77.518;2022-07-10T02:42:03;11;11;
65012;PMS5003;51715;39.432;-77.518;2022-07-10T02:44:33;10;9;
65012;PMS5003;51715;39.432;-77.518;2022-07-10T02:47:02;12;12;
65012;PMS5003;51715;39.432;-77.518;2022-07-10T02:49:32;11;11;
65012;PMS5003;51715;39.432;-77.518;2022-07-10T02:52:01;13;13;
65012;PMS5003;51715;39.432;-77.518;2022-07-10T02:54:31;11;11;
65012;PMS5003;51715;39.432;-77.518;2022-07-10T02:56:59;14;12;
65012;PMS5003;51715;39.432;-77.518;2022-07-10T02:59:28;10;10;
65012;PMS5003;51715;39.432;-77.518;2022-07-10T03:01:57;15;15;
65012;PMS5003;51715;39.432;-77.518;2022-07-10T03:04:25;12;11;
65012;PMS5003;51715;39.432;-77.518;2022-07-10T03:06:53;12;11;
65012;PMS5003;51715;39.432;-77.518;2022-07-10T03:09:23;14;12;
65012;PMS5003;51715;39.432;-77.518;2022-07-10T03:11:51;10;10;
65012;PMS5003;51715;39.432;-77.518;2022-07-10T03:14:20;8;8;
65012;PMS5003;51715;39.432;-77.518;2022-07-10T03:16:48;14;14;
65012;PMS5003;51715;39.432;-77.518;2022-07-10T03:19:17;14;14;
65012;PMS5003;51715;39.432;-77.518;2022-07-10T03:21:45;8;8;
65012;PMS5003;51715;39.432;-77.518;2022-07-10T03:24:13;12;12;
65012;PMS5003;51715;39.432;-77.518;2022-07-10T03:26:40;12;12;
65012;PMS5003;51715;39.432;-77.518;2022-07-10T03:29:10;10;9;
65012;PMS5003;51715;39.432;-77.518;2022-07-10T03:31:38;10;9;
65012;PMS5003;51715;39.432;-77.518;2022-07-10T03:34:06;9;9;
65012;PMS5003;51715;39.432;-77.518;2022-07-10T03:36:35;10;10;
65012;PMS5003;51715;39.432;-77.518;2022-07-10T03:39:03;13;11;
65012;PMS5003;51715;39.432;-77.518;2022-07-10T03:41:32;14;11;
65012;PMS5003;51715;39.432;-77.518;2022-07-10T03:43:59;12;10;
65012;PMS5003;51715;39.432;-77.518;2022-07-10T03:46:27;11;11;
65012;PMS5003;51715;39.432;-77.518;2022-07-10T03:48:56;10;10;
65012;PMS5003;51715;39.432;-77.518;2022-07-10T03:51:24;10;10;
65012;PMS5003;51715;39.432;-77.518;2022-07-10T03:53:54;10;10;
65012;PMS5003;51715;39.432;-77.518;2022-07-10T03:56:21;12;12;
65012;PMS5003;51715;39.432;-77.518;2022-07-10T03:58:51;13;13;
65012;PMS5003;51715;39.432;-77.518;2022-07-10T04:03:54;14;14;
65012;PMS5003;51715;39.432;-77.518;2022-07-10T04:06:22;12;12;
65012;PMS5003;51715;39.432;-77.518;2022-07-10T04:08:52;12;12;
65012;PMS5003;51715;39.432;-77.518;2022-07-10T04:11:21;11;9;
65012;PMS5003;51715;39.432;-77.518;2022-07-10T04:13:51;11;11;
65012;PMS5003;51715;39.432;-77.518;2022-07-10T04:16:19;10;10;
65012;PMS5003;51715;39.432;-77.518;2022-07-10T04:18:47;8;8;
65012;PMS5003;51715;39.432;-77.518;2022-07-10T04:21:15;11;9;
65012;PMS5003;51715;39.432;-77.518;2022-07-10T04:23:44;12;12;
65012;PMS5003;51715;39.432;-77.518;2022-07-10T04:26:11;10;10;
65012;PMS5003;51715;39.432;-77.518;2022-07-10T04:28:40;10;10;
65012;PMS5003;51715;39.432;-77.518;2022-07-10T04:31:08;11;11;
65012;PMS5003;51715;39.432;-77.518;2022-07-10T04:33:36;14;11;
65012;PMS5003;51715;39.432;-77.518;2022-07-10T04:36:06;15;12;
65012;PMS5003;51715;39.432;-77.518;2022-07-10T04:38:34;11;11;
65012;PMS5003;51715;39.432;-77.518;2022-07-10T04:41:03;12;12;
65012;PMS5003;51715;39.432;-77.518;2022-07-10T04:43:32;12;12;
65012;PMS5003;51715;39.432;-77.518;2022-07-10T04:46:00;10;10;
65012;PMS5003;51715;39.432;-77.518;2022-07-10T04:48:28;13;11;
65012;PMS5003;51715;39.432;-77.518;2022-07-10T04:50:57;12;11;
65012;PMS5003;51715;39.432;-77.518;2022-07-10T04:53:26;13;12;
65012;PMS5003;51715;39.432;-77.518;2022-07-10T04:55:54;13;13;
65012;PMS5003;51715;39.432;-77.518;2022-07-10T04:58:23;14;14;
65012;PMS5003;51715;39.432;-77.518;2022-07-10T05:00:51;15;14;
65012;PMS5003;51715;39.432;-77.518;2022-07-10T05:03:18;11;11;
65012;PMS5003;51715;39.432;-77.518;2022-07-10T05:05:47;8;8;
65012;PMS5003;51715;39.432;-77.518;2022-07-10T05:08:14;14;14;
65012;PMS5003;51715;39.432;-77.518;2022-07-10T05:10:43;13;11;
65012;PMS5003;51715;39.432;-77.518;2022-07-10T05:13:11;14;12;
65012;PMS5003;51715;39.432;-77.518;2022-07-10T05:15:40;12;10;
65012;PMS5003;51715;39.432;-77.518;2022-07-10T05:18:08;11;11;
65012;PMS5003;51715;39.432;-77.518;2022-07-10T05:20:37;11;9;
65012;PMS5003;51715;39.432;-77.518;2022-07-10T05:23:06;9;9;
65012;PMS5003;51715;39.432;-77.518;2022-07-10T05:25:34;15;15;
65012;PMS5003;51715;39.432;-77.518;2022-07-10T05:28:03;10;10;
65012;PMS5003;51715;39.432;-77.518;2022-07-10T05:30:31;11;10;
65012;PMS5003;51715;39.432;-77.518;2022-07-10T05:32:59;13;13;
65012;PMS5003;51715;39.432;-77.518;2022-07-10T05:35:28;11;11;
65012;PMS5003;51715;39.432;-77.518;2022-07-10T05:37:56;10;10;
65012;PMS5003;51715;39.432;-77.518;2022-07-10T05:40:25;13;12;
65012;PMS5003;51715;39.432;-77.518;2022-07-10T05:42:52;10;10;
65012;PMS5003;51715;39.432;-77.518;2022-07-10T05:45:20;14;13;
65012;PMS5003;51715;39.432;-77.518;2022-07-10T05:47:48;11;11;
65012;PMS5003;51715;39.432;-77.518;2022-07-10T05:50:17;14;12;
65012;PMS5003;51715;39.432;-77.518;2022-07-10T05:52:45;12;12;
65012;PMS5003;51715;39.432;-77.518;2022-07-10T05:55:13;12;12;
65012;PMS5003;51715;39.432;-77.518;2022-07-10T05:57:41;15;15;
65012;PMS5003;51715;39.432;-77.518;2022-07-10T06:00:10;10;9;
65012;PMS5003;51715;39.432;-77.518;2022-07-10T06:02:38;13;13;
65012;PMS5003;51715;39.432;-77.518;2022-07-10T06:05:07;14;14;
65012;PMS5003;51715;39.432;-77.518;2022-07-10T06:07:36;8;7;
65012;PMS5003;51715;39.432;-77.518;2022-07-10T06:10:06;12;11;
65012;PMS5003;51715;39.432;-77.518;2022-07-10T06:12:35;15;15;
65012;PMS5003;51715;39.432;-77.518;2022-07-10T06:15:04;12;12;
65012;PMS5003;51715;39.432;-77.518;2022-07-10T06:17:33;11;11;
65012;PMS5003;51715;39.432;-77.518;2022-07-10T06:20:03;13;13;
65012;PMS5003;51715;39.432;-77.518;2022-07-10T06:22:31;13;11;
65012;PMS5003;51715;39.432;-77.518;2022-07-10T06:25:00;13;12;
65012;PMS5003;51715;39.432;-77.518;2022-07-10T06:27:30;10;10;
65012;PMS5003;51715;39.432;-77.518;2022-07-10T06:29:59;11;10;
65012;PMS5003;51715;39.432;-77.518;2022-07-10T06:32:29;12;9;
65012;PMS5003;51715;39.432;-77.518;2022-07-10T06:34:58;10;10;
65012;PMS5003;51715;39.432;-77.518;2022-07-10T06:37:26;11;11;
65012;PMS5003;51715;39.432;-77.518;2022-07-10T06:39:54;10;10;
65012;PMS5003;51715;39.432;-77.518;2022-07-10T06:42:22;10;10;
65012;PMS5003;51715;39.432;-77.518;2022-07-10T06:44:51;13;12;
65012;PMS5003;51715;39.432;-77.518;2022-07-10T06:47:19;13;12;
65012;PMS5003;51715;39.432;-77.518;2022-07-10T06:49:47;11;10;
65012;PMS5003;51715;39.432;-77.518;2022-07-10T06:52:16;13;13;
65012;PMS5003;51715;39.432;-77.518;2022-07-10T06:54:44;12;12;
65012;PMS5003;51715;39.432;-77.518;2022-07-10T06:57:12;13;13;
65012;PMS5003;51715;39.432;-77.518;2022-07-10T06:59:41;15;11;
65012;PMS5003;51715;39.432;-77.518;2022-07-10T07:02:10;10;10;
65012;PMS5003;51715;39.432;-77.518;2022-07-10T07:04:39;9;9;
65012;PMS5003;51715;39.432;-77.518;2022-07-10T07:07:07;15;12;
65012;PMS5003;51715;39.432;-77.518;2022-07-10T07:09:35;10;10;
65012;PMS5003;51715;39.432;-77.518;2022-07-10T07:12:04;12;12;
65012;PMS5003;51715;39.432;-77.518;2022-07-10T07:14:33;14;13;
65012;PMS5003;51715;39.432;-77.518;2022-07-10T07:17:02;11;11;
65012;PMS5003;51715;39.432;-77.518;2022-07-10T07:19:32;11;8;
65012;PMS5003;51715;39.432;-77.518;2022-07-10T07:22:01;9;9;
65012;PMS5003;51715;39.432;-77.518;2022-07-10T07:24:29;11;10;
65012;PMS5003;51715;39.432;-77.518;2022-07-10T07:26:57;12;12;
65012;PMS5003;51715;39.432;-77.518;2022-07-10T07:29:26;10;10;
65012;PMS5003;51715;39.432;-77.518;2022-07-10T07:31:54;9;9;
65012;PMS5003;51715;39.432;-77.518;2022-07-10T07:34:22;16;11;
65012;PMS5003;51715;39.432;-77.518;2022-07-10T07:36:51;12;12;
65012;PMS5003;51715;39.432;-77.518;2022-07-10T07:39:20;14;13;
65012;PMS5003;51715;39.432;-77.518;2022-07-10T07:41:48;15;13;
65012;PMS5003;51715;39.432;-77.518;2022-07-10T07:44:17;12;12;
65012;PMS5003;51715;39.432;-77.518;2022-07-10T07:46:45;12;10;
65012;PMS5003;51715;39.432;-77.518;2022-07-10T07:49:13;14;13;
65012;PMS5003;51715;39.432;-77.518;2022-07-10T07:51:42;11;11;
65012;PMS5003;51715;39.432;-77.518;2022-07-10T07:54:10;10;10;
65012;PMS5003;51715;39.432;-77.518;2022-07-10T07:56:39;10;9;
65012;PMS5003;51715;39.432;-77.518;2022-07-10T07:59:08;15;13;
65012;PMS5003;51715;39.432;-77.518;2022-07-10T08:01:36;7;7;
65012;PMS5003;51715;39.432;-77.518;2022-07-10T08:04:04;12;11;
65012;PMS5003;51715;39.432;-77.518;2022-07-10T08:06:32;13;13;
65012;PMS5003;51715;39.432;-77.518;2022-07-10T08:09:01;10;9;
65012;PMS5003;51715;39.432;-77.518;2022-07-10T08:11:29;8;8;
65012;PMS5003;51715;39.432;-77.518;2022-07-10T08:13:57;9;9;
65012;PMS5003;51715;39.432;-77.518;2022-07-10T08:16:25;8;8;
65012;PMS5003;51715;39.432;-77.518;2022-07-10T08:18:54;11;10;
65012;PMS5003;51715;39.432;-77.518;2022-07-10T08:21:22;12;11;
65012;PMS5003;51715;39.432;-77.518;2022-07-10T08:23:51;12;11;
65012;PMS5003;51715;39.432;-77.518;2022-07-10T08:26:19;11;11;
65012;PMS5003;51715;39.432;-77.518;2022-07-10T08:28:47;8;8;
65012;PMS5003;51715;39.432;-77.518;2022-07-10T08:31:15;8;8;
65012;PMS5003;51715;39.432;-77.518;2022-07-10T08:33:44;9;9;
65012;PMS5003;51715;39.432;-77.518;2022-07-10T08:36:11;9;9;
65012;PMS5003;51715;39.432;-77.518;2022-07-10T08:38:39;13;10;
65012;PMS5003;51715;39.432;-77.518;2022-07-10T08:41:07;7;7;
65012;PMS5003;51715;39.432;-77.518;2022-07-10T08:43:38;8;8;
65012;PMS5003;51715;39.432;-77.518;2022-07-10T08:46:06;8;8;
65012;PMS5003;51715;39.432;-77.518;2022-07-10T08:48:34;14;12;
65012;PMS5003;51715;39.432;-77.518;2022-07-10T08:51:06;10;9;
65012;PMS5003;51715;39.432;-77.518;2022-07-10T08:53:38;11;9;
65012;PMS5003;51715;39.432;-77.518;2022-07-10T08:56:07;12;11;
65012;PMS5003;51715;39.432;-77.518;2022-07-10T08:58:37;14;12;
65012;PMS5003;51715;39.432;-77.518;2022-07-10T09:01:05;10;10;
65012;PMS5003;51715;39.432;-77.518;2022-07-10T09:03:33;9;9;
65012;PMS5003;51715;39.432;-77.518;2022-07-10T09:06:04;10;10;
65012;PMS5003;51715;39.432;-77.518;2022-07-10T09:08:33;12;11;
65012;PMS5003;51715;39.432;-77.518;2022-07-10T09:11:17;19;18;
65012;PMS5003;51715;39.432;-77.518;2022-07-10T09:13:49;36;35;
65012;PMS5003;51715;39.432;-77.518;2022-07-10T09:16:21;48;43;
65012;PMS5003;51715;39.432;-77.518;2022-07-10T09:18:50;33;31;
65012;PMS5003;51715;39.432;-77.518;2022-07-10T09:21:19;35;34;
65012;PMS5003;51715;39.432;-77.518;2022-07-10T09:23:48;23;21;
65012;PMS5003;51715;39.432;-77.518;2022-07-10T09:26:18;20;17;
65012;PMS5003;51715;39.432;-77.518;2022-07-10T09:28:46;19;18;
65012;PMS5003;51715;39.432;-77.518;2022-07-10T09:31:20;16;13;
65012;PMS5003;51715;39.432;-77.518;2022-07-10T09:33:48;18;15;
65012;PMS5003;51715;39.432;-77.518;2022-07-10T09:36:16;17;16;
65012;PMS5003;51715;39.432;-77.518;2022-07-10T09:38:48;14;13;
65012;PMS5003;51715;39.432;-77.518;2022-07-10T09:41:21;17;17;
65012;PMS5003;51715;39.432;-77.518;2022-07-10T09:43:52;19;19;
65012;PMS5003;51715;39.432;-77.518;2022-07-10T09:46:22;17;17;
65012;PMS5003;51715;39.432;-77.518;2022-07-10T09:49:08;18;17;
65012;PMS5003;51715;39.432;-77.518;2022-07-10T09:51:38;21;19;
65012;PMS5003;51715;39.432;-77.518;2022-07-10T09:54:08;13;13;
65012;PMS5003;51715;39.432;-77.518;2022-07-10T09:56:40;16;16;
65012;PMS5003;51715;39.432;-77.518;2022-07-10T09:59:10;14;14;
65012;PMS5003;51715;39.432;-77.518;2022-07-10T10:01:42;15;15;
65012;PMS5003;51715;39.432;-77.518;2022-07-10T10:04:11;13;13;
65012;PMS5003;51715;39.432;-77.518;2022-07-10T10:06:41;13;12;
65012;PMS5003;51715;39.432;-77.518;2022-07-10T10:09:15;9;9;
65012;PMS5003;51715;39.432;-77.518;2022-07-10T10:11:48;12;12;
65012;PMS5003;51715;39.432;-77.518;2022-07-10T10:14:21;14;14;
65012;PMS5003;51715;39.432;-77.518;2022-07-10T10:16:50;11;11;
65012;PMS5003;51715;39.432;-77.518;2022-07-10T10:19:21;10;10;
65012;PMS5003;51715;39.432;-77.518;2022-07-10T10:21:50;13;10;
65012;PMS5003;51715;39.432;-77.518;2022-07-10T10:24:20;15;15;
65012;PMS5003;51715;39.432;-77.518;2022-07-10T10:26:50;10;10;
65012;PMS5003;51715;39.432;-77.518;2022-07-10T10:29:19;12;12;
65012;PMS5003;51715;39.432;-77.518;2022-07-10T10:31:47;10;9;
65012;PMS5003;51715;39.432;-77.518;2022-07-10T10:34:37;11;11;
65012;PMS5003;51715;39.432;-77.518;2022-07-10T10:37:06;12;12;
65012;PMS5003;51715;39.432;-77.518;2022-07-10T10:39:56;12;11;
65012;PMS5003;51715;39.432;-77.518;2022-07-10T10:42:33;12;12;
65012;PMS5003;51715;39.432;-77.518;2022-07-10T10:45:36;10;10;
65012;PMS5003;51715;39.432;-77.518;2022-07-10T10:48:05;8;8;
65012;PMS5003;51715;39.432;-77.518;2022-07-10T10:50:38;11;10;
65012;PMS5003;51715;39.432;-77.518;2022-07-10T10:53:16;9;9;
65012;PMS5003;51715;39.432;-77.518;2022-07-10T10:56:45;10;10;
65012;PMS5003;51715;39.432;-77.518;2022-07-10T10:59:45;13;12;
65012;PMS5003;51715;39.432;-77.518;2022-07-10T11:02:21;10;9;
65012;PMS5003;51715;39.432;-77.518;2022-07-10T11:04:55;11;10;
65012;PMS5003;51715;39.432;-77.518;2022-07-10T11:08:07;8;8;
65012;PMS5003;51715;39.432;-77.518;2022-07-10T11:10:35;17;17;
65012;PMS5003;51715;39.432;-77.518;2022-07-10T11:13:04;14;14;
65012;PMS5003;51715;39.432;-77.518;2022-07-10T11:15:35;10;10;
65012;PMS5003;51715;39.432;-77.518;2022-07-10T11:18:04;8;7;
65012;PMS5003;51715;39.432;-77.518;2022-07-10T11:20:35;10;10;
65012;PMS5003;51715;39.432;-77.518;2022-07-10T11:23:10;7;7;
65012;PMS5003;51715;39.432;-77.518;2022-07-10T11:25:53;9;9;
65012;PMS5003;51715;39.432;-77.518;2022-07-10T11:28:32;9;8;
65012;PMS5003;51715;39.432;-77.518;2022-07-10T11:31:09;11;9;
65012;PMS5003;51715;39.432;-77.518;2022-07-10T11:33:39;9;9;
65012;PMS5003;51715;39.432;-77.518;2022-07-10T11:36:12;10;10;
65012;PMS5003;51715;39.432;-77.518;2022-07-10T11:38:42;8;8;
65012;PMS5003;51715;39.432;-77.518;2022-07-10T11:41:13;10;9;
65012;PMS5003;51715;39.432;-77.518;2022-07-10T11:43:46;9;8;
65012;PMS5003;51715;39.432;-77.518;2022-07-10T11:46:16;8;8;
65012;PMS5003;51715;39.432;-77.518;2022-07-10T11:48:45;7;6;
65012;PMS5003;51715;39.432;-77.518;2022-07-10T11:51:17;6;6;
65012;PMS5003;51715;39.432;-77.518;2022-07-10T11:53:56;7;6;
65012;PMS5003;51715;39.432;-77.518;2022-07-10T11:56:27;5;5;
65012;PMS5003;51715;39.432;-77.518;2022-07-10T11:58:57;8;8;
65012;PMS5003;51715;39.432;-77.518;2022-07-10T12:01:26;6;6;
65012;PMS5003;51715;39.432;-77.518;2022-07-10T12:03:57;5;5;
65012;PMS5003;51715;39.432;-77.518;2022-07-10T12:06:27;5;5;
65012;PMS5003;51715;39.432;-77.518;2022-07-10T12:09:02;6;6;
65012;PMS5003;51715;39.432;-77.518;2022-07-10T12:11:31;7;7;
65012;PMS5003;51715;39.432;-77.518;2022-07-10T12:14:09;4;4;
65012;PMS5003;51715;39.432;-77.518;2022-07-10T12:16:40;5;5;
65012;PMS5003;51715;39.432;-77.518;2022-07-10T12:19:10;7;6;
65012;PMS5003;51715;39.432;-77.518;2022-07-10T12:21:40;5;5;
65012;PMS5003;51715;39.432;-77.518;2022-07-10T12:24:10;5;5;
65012;PMS5003;51715;39.432;-77.518;2022-07-10T12:26:39;8;7;
65012;PMS5003;51715;39.432;-77.518;2022-07-10T12:29:11;6;5;
65012;PMS5003;51715;39.432;-77.518;2022-07-10T12:31:46;8;7;
65012;PMS5003;51715;39.432;-77.518;2022-07-10T12:34:16;6;5;
65012;PMS5003;51715;39.432;-77.518;2022-07-10T12:36:46;5;4;
65012;PMS5003;51715;39.432;-77.518;2022-07-10T12:39:16;5;5;
65012;PMS5003;51715;39.432;-77.518;2022-07-10T12:41:54;5;5;
65012;PMS5003;51715;39.432;-77.518;2022-07-10T12:44:32;4;4;
65012;PMS5003;51715;39.432;-77.518;2022-07-10T12:47:02;8;7;
65012;PMS5003;51715;39.432;-77.518;2022-07-10T12:49:47;5;5;
65012;PMS5003;51715;39.432;-77.518;2022-07-10T12:52:25;6;6;
65012;PMS5003;51715;39.432;-77.518;2022-07-10T12:55:10;5;5;
65012;PMS5003;51715;39.432;-77.518;2022-07-10T12:57:48;5;5;
65012;PMS5003;51715;39.432;-77.518;2022-07-10T13:00:18;4;4;
65012;PMS5003;51715;39.432;-77.518;2022-07-10T13:02:47;7;5;
65012;PMS5003;51715;39.432;-77.518;2022-07-10T13:05:32;3;2;
65012;PMS5003;51715;39.432;-77.518;2022-07-10T13:08:06;6;3;
65012;PMS5003;51715;39.432;-77.518;2022-07-10T13:10:37;5;5;
65012;PMS5003;51715;39.432;-77.518;2022-07-10T13:13:05;4;4;
65012;PMS5003;51715;39.432;-77.518;2022-07-10T13:15:34;5;4;
65012;PMS5003;51715;39.432;-77.518;2022-07-10T13:18:04;5;5;
65012;PMS5003;51715;39.432;-77.518;2022-07-10T13:20:33;6;6;
65012;PMS5003;51715;39.432;-77.518;2022-07-10T13:23:02;5;5;
65012;PMS5003;51715;39.432;-77.518;2022-07-10T13:25:30;7;5;
65012;PMS5003;51715;39.432;-77.518;2022-07-10T13:27:59;6;5;
65012;PMS5003;51715;39.432;-77.518;2022-07-10T13:30:27;4;4;
65012;PMS5003;51715;39.432;-77.518;2022-07-10T13:32:55;4;4;
65012;PMS5003;51715;39.432;-77.518;2022-07-10T13:35:27;5;4;
65012;PMS5003;51715;39.432;-77.518;2022-07-10T13:37:57;4;4;
65012;PMS5003;51715;39.432;-77.518;2022-07-10T13:40:25;4;4;
65012;PMS5003;51715;39.432;-77.518;2022-07-10T13:42:54;4;4;
65012;PMS5003;51715;39.432;-77.518;2022-07-10T13:45:24;6;6;
65012;PMS5003;51715;39.432;-77.518;2022-07-10T13:47:52;6;6;
65012;PMS5003;51715;39.432;-77.518;2022-07-10T13:50:22;4;4;
65012;PMS5003;51715;39.432;-77.518;2022-07-10T13:52:50;2;2;
65012;PMS5003;51715;39.432;-77.518;2022-07-10T13:55:18;5;5;
65012;PMS5003;51715;39.432;-77.518;2022-07-10T13:57:47;5;5;
65012;PMS5003;51715;39.432;-77.518;2022-07-10T14:00:15;7;6;
65012;PMS5003;51715;39.432;-77.518;2022-07-10T14:02:43;4;4;
65012;PMS5003;51715;39.432;-77.518;2022-07-10T14:05:11;4;4;
65012;PMS5003;51715;39.432;-77.518;2022-07-10T14:07:40;6;5;
65012;PMS5003;51715;39.432;-77.518;2022-07-10T14:10:09;5;5;
65012;PMS5003;51715;39.432;-77.518;2022-07-10T14:12:38;4;4;
65012;PMS5003;51715;39.432;-77.518;2022-07-10T14:15:06;6;5;
65012;PMS5003;51715;39.432;-77.518;2022-07-10T14:17:35;5;5;
65012;PMS5003;51715;39.432;-77.518;2022-07-10T14:20:03;6;6;
65012;PMS5003;51715;39.432;-77.518;2022-07-10T14:22:33;3;3;
65012;PMS5003;51715;39.432;-77.518;2022-07-10T14:25:02;7;4;
65012;PMS5003;51715;39.432;-77.518;2022-07-10T14:27:31;4;4;
65012;PMS5003;51715;39.432;-77.518;2022-07-10T14:29:59;4;4;
65012;PMS5003;51715;39.432;-77.518;2022-07-10T14:32:29;5;4;
65012;PMS5003;51715;39.432;-77.518;2022-07-10T14:34:57;5;5;
65012;PMS5003;51715;39.432;-77.518;2022-07-10T14:37:25;5;5;
65012;PMS5003;51715;39.432;-77.518;2022-07-10T14:39:53;4;4;
65012;PMS5003;51715;39.432;-77.518;2022-07-10T14:42:22;3;3;
65012;PMS5003;51715;39.432;-77.518;2022-07-10T14:44:50;4;4;
65012;PMS5003;51715;39.432;-77.518;2022-07-10T14:47:18;5;5;
65012;PMS5003;51715;39.432;-77.518;2022-07-10T14:49:47;3;3;
65012;PMS5003;51715;39.432;-77.518;2022-07-10T14:52:15;9;9;
65012;PMS5003;51715;39.432;-77.518;2022-07-10T14:54:43;5;5;
65012;PMS5003;51715;39.432;-77.518;2022-07-10T14:57:11;6;6;
65012;PMS5003;51715;39.432;-77.518;2022-07-10T14:59:40;5;4;
65012;PMS5003;51715;39.432;-77.518;2022-07-10T15:02:08;6;6;
65012;PMS5003;51715;39.432;-77.518;2022-07-10T15:04:37;5;5;
65012;PMS5003;51715;39.432;-77.518;2022-07-10T15:07:06;5;5;
65012;PMS5003;51715;39.432;-77.518;2022-07-10T15:09:33;4;3;
65012;PMS5003;51715;39.432;-77.518;2022-07-10T15:12:01;5;5;
65012;PMS5003;51715;39.432;-77.518;2022-07-10T15:14:30;5;5;
65012;PMS5003;51715;39.432;-77.518;2022-07-10T15:16:59;5;4;
65012;PMS5003;51715;39.432;-77.518;2022-07-10T15:19:27;6;5;
65012;PMS5003;51715;39.432;-77.518;2022-07-10T15:21:55;5;5;
65012;PMS5003;51715;39.432;-77.518;2022-07-10T15:24:25;6;6;
65012;PMS5003;51715;39.432;-77.518;2022-07-10T15:26:52;4;4;
65012;PMS5003;51715;39.432;-77.518;2022-07-10T15:29:20;8;8;
65012;PMS5003;51715;39.432;-77.518;2022-07-10T15:31:49;5;5;
65012;PMS5003;51715;39.432;-77.518;2022-07-10T15:34:17;3;3;
65012;PMS5003;51715;39.432;-77.518;2022-07-10T15:36:46;5;5;
65012;PMS5003;51715;39.432;-77.518;2022-07-10T15:39:14;6;6;
65012;PMS5003;51715;39.432;-77.518;2022-07-10T15:41:43;4;4;
65012;PMS5003;51715;39.432;-77.518;2022-07-10T15:44:11;5;5;
65012;PMS5003;51715;39.432;-77.518;2022-07-10T15:46:40;6;6;
65012;PMS5003;51715;39.432;-77.518;2022-07-10T15:49:08;6;6;
65012;PMS5003;51715;39.432;-77.518;2022-07-10T15:51:37;6;5;
65012;PMS5003;51715;39.432;-77.518;2022-07-10T15:54:05;7;5;
65012;PMS5003;51715;39.432;-77.518;2022-07-10T15:56:34;4;4;
65012;PMS5003;51715;39.432;-77.518;2022-07-10T15:59:02;7;7;
65012;PMS5003;51715;39.432;-77.518;2022-07-10T16:01:30;8;8;
65012;PMS5003;51715;39.432;-77.518;2022-07-10T16:03:59;8;8;
65012;PMS5003;51715;39.432;-77.518;2022-07-10T16:06:29;7;6;
65012;PMS5003;51715;39.432;-77.518;2022-07-10T16:08:57;4;4;
65012;PMS5003;51715;39.432;-77.518;2022-07-10T16:11:26;10;6;
65012;PMS5003;51715;39.432;-77.518;2022-07-10T16:13:54;5;5;
65012;PMS5003;51715;39.432;-77.518;2022-07-10T16:16:22;8;7;
65012;PMS5003;51715;39.432;-77.518;2022-07-10T16:18:51;9;8;